Albany, CA

7:57 PM PDT on October 25, 2014 (GMT -0700)
Thousand Oaks | Change Station
CLOSE
Current Station
Personal Weather Station
Location: Berkeley, CA
Elevation: 188 ft
Nearby Weather Stations

Elev 188 ft 37.89 °N, 122.28 °W | Updated 1 minute ago

Partly Cloudy
Partly Cloudy
61.3 °F
Feels Like 61.3 °F
N
0.0
Wind Variable Wind from South

Today
High -- | Low -- °F
--% Chance of Precip.
Yesterday
High -- | Low -- °F
Precip. -- in
7:27 AM 6:18 PM
Waxing Crescent, 5% visible
Pressure 30.08 in
Visibility 10.0 miles
Clouds Few 2100 ft
Scattered Clouds 3500 ft
Mostly Cloudy 5000 ft
Dew Point 56 °F
Humidity 83%
Rainfall 0.29 in
Snow Depth Not available.
UV 0 out of 12
Pollen .10 out of 12
Ozone Good
PM2.5 Good
Flu Activity Sporadic
METAR KOAK 260153Z 23009KT 10SM FEW021 SCT035 BKN050 18/13 A3008 RMK AO2 SLP184 T01780133

More Conditions Fewer Conditions

Pressure 30.08 in
Visibility 10.0 miles
Clouds Few 2100 ft
Scattered Clouds 3500 ft
Mostly Cloudy 5000 ft
Dew Point 56 °F
Humidity 83%
Rainfall 0.29 in
Snow Depth Not available.
UV 0 out of 12
Pollen .10 out of 12
Ozone Good
PM2.5 Good
Flu Activity Sporadic
METAR KOAK 260153Z 23009KT 10SM FEW021 SCT035 BKN050 18/13 A3008 RMK AO2 SLP184 T01780133

More Conditions Fewer Conditions

10-Day Weather Forecast

Almanac

Astronomy

Oct. 25, 2014 Rise Set
Actual Time 7:27 AM PDT 6:18 PM PDT
Civil Twilight 7:00 AM PDT 6:45 PM PDT
Nautical Twilight 6:29 AM PDT 7:15 PM PDT
Astronomical Twilight 5:59 AM PDT 7:46 PM PDT
Moon 9:10 AM PDT (10/25) 7:47 PM PDT (10/25)
Length of Visible Light 11h 44m
Length of Day
10h 50m
Tomorrow will be 2m 15s shorter.
Waxing Crescent, 5% of the Moon is Illuminated
Today
Waxing Crescent
Oct 30
First Quarter
Nov 6
Full
Nov 14
Last Quarter
Nov 22
New

Today's Extremes

State Highs State Lows

Community

WunderPhotos

Upload Photos

1,765,086 photos uploaded!

Nearby

Air Quality

  Air Quality AQ Index Pollutant
Yesterday Good
OZONE
Yesterday Good
PM2.5
Current Good
PM2.5
Current Good
OZONE
Saturday Good
OZONE
Sunday Good
OZONE
Monday Moderate
PM2.5
Tuesday Moderate
PM2.5
Wednesday Moderate
PM2.5

Snow Depth

Station Depth Elevation
Carson Pass 0 in 8500 ft
Echo Peak 3 in 7800 ft
Blue Lakes 0 in 8000 ft
Rubicon #2 1 in 7500 ft
Ward Creek #3 1 in 6750 ft

Earthquake Activity

City Distance Mag. Time & Date
Antioch, California 29 miles 2.7 6:42 AM PDT
2014-10-25
Deer Park, California 44 miles 2.8 6:40 AM PDT
2014-10-25
Coalinga, California 164 miles 2.5 11:01 PM PDT
2014-10-24
Minimum magnitude displayed is 2.5.

Coastal Water Temperatures

Place Temperature
San Francisco, CA 63.0 °F
Richmond, CA 64.0 °F
Port Chicago, CA 66.0 °F

Nearby Weather Stations